createdAt,value
2018-07-20T00:00:42.621Z,25.60
2018-07-20T00:03:14.500Z,25.50
2018-07-20T00:05:47.261Z,25.50
2018-07-20T00:08:19.041Z,25.40
2018-07-20T00:10:51.380Z,25.20
2018-07-20T00:13:23.040Z,25.20
2018-07-20T00:15:55.742Z,25.20
2018-07-20T00:18:26.661Z,25.20
2018-07-20T00:20:59.220Z,25.10
2018-07-20T00:23:31.561Z,25.00
2018-07-20T00:26:03.761Z,25.00
2018-07-20T00:28:35.841Z,25.00
2018-07-20T00:31:06.160Z,24.90
2018-07-20T00:33:37.502Z,24.90
2018-07-20T00:36:10.043Z,24.80
2018-07-20T00:38:42.281Z,24.80
2018-07-20T00:41:14.435Z,24.90
2018-07-20T00:43:46.020Z,24.90
2018-07-20T00:46:17.623Z,24.80
2018-07-20T00:48:49.641Z,24.70
2018-07-20T00:51:21.801Z,24.60
2018-07-20T00:53:53.761Z,24.60
2018-07-20T00:56:25.923Z,24.60
2018-07-20T00:58:58.121Z,24.60
2018-07-20T01:01:29.860Z,24.60
2018-07-20T01:04:02.081Z,24.50
2018-07-20T01:06:34.541Z,24.50
2018-07-20T01:09:07.740Z,24.50
2018-07-20T01:11:40.702Z,24.50
2018-07-20T01:14:13.061Z,24.50
2018-07-20T01:16:44.881Z,24.40
2018-07-20T01:19:17.121Z,24.40
2018-07-20T01:21:49.100Z,24.40
2018-07-20T01:24:21.280Z,24.40
2018-07-20T01:26:52.642Z,24.40
2018-07-20T01:29:24.980Z,24.40
2018-07-20T01:31:56.840Z,24.30
2018-07-20T01:34:28.840Z,24.30
2018-07-20T01:37:00.860Z,24.20
2018-07-20T01:39:32.641Z,24.20
2018-07-20T01:42:05.221Z,24.20
2018-07-20T01:44:36.500Z,24.20
2018-07-20T01:47:08.060Z,24.10
2018-07-20T01:49:40.481Z,24.00
2018-07-20T01:52:12.280Z,24.00
2018-07-20T01:54:43.262Z,24.00
2018-07-20T01:57:15.280Z,23.90
2018-07-20T01:59:47.480Z,24.00
2018-07-20T02:02:19.960Z,23.90
2018-07-20T02:04:51.681Z,23.90
2018-07-20T02:07:24.181Z,23.90
2018-07-20T02:09:55.961Z,23.80
2018-07-20T02:12:28.381Z,23.80
2018-07-20T02:15:00.782Z,23.70
2018-07-20T02:17:32.000Z,23.70
2018-07-20T02:20:04.140Z,23.60
2018-07-20T02:22:36.000Z,23.60
2018-07-20T02:25:08.280Z,23.60
2018-07-20T02:27:40.340Z,23.50
2018-07-20T02:30:13.301Z,23.50
2018-07-20T02:32:45.780Z,23.40
2018-07-20T02:35:17.881Z,23.40
2018-07-20T02:37:49.941Z,23.30
2018-07-20T02:40:21.440Z,23.30
2018-07-20T02:42:53.560Z,23.30
2018-07-20T02:45:25.320Z,23.40
2018-07-20T02:47:56.845Z,23.40
2018-07-20T02:50:28.661Z,23.40
2018-07-20T02:53:00.641Z,23.40
2018-07-20T02:55:32.784Z,23.40
2018-07-20T02:58:04.681Z,23.40
2018-07-20T03:00:36.660Z,23.30
2018-07-20T03:03:08.320Z,23.20
2018-07-20T03:05:39.861Z,23.20
2018-07-20T03:08:11.644Z,23.20
2018-07-20T03:10:43.721Z,23.10
2018-07-20T03:13:16.061Z,23.10
2018-07-20T03:15:48.801Z,23.10
2018-07-20T03:18:20.680Z,23.10
2018-07-20T03:20:52.543Z,23.10
2018-07-20T03:23:23.744Z,23.10
2018-07-20T03:25:55.825Z,23.10
2018-07-20T03:28:27.280Z,23.00
2018-07-20T03:30:59.541Z,23.00
2018-07-20T03:33:31.468Z,23.00
2018-07-20T03:36:03.600Z,23.00
2018-07-20T03:38:35.620Z,22.90
2018-07-20T03:41:06.120Z,22.90
2018-07-20T03:43:37.301Z,22.80
2018-07-20T03:46:08.740Z,22.80
2018-07-20T03:48:40.320Z,22.80
2018-07-20T03:51:12.600Z,22.80
2018-07-20T03:53:44.242Z,22.80
2018-07-20T03:56:16.720Z,22.60
2018-07-20T03:58:47.901Z,22.60
2018-07-20T04:01:20.600Z,22.70
2018-07-20T04:03:51.980Z,22.70
2018-07-20T04:06:24.223Z,22.70
2018-07-20T04:08:55.861Z,22.60
2018-07-20T04:11:27.827Z,22.70
2018-07-20T04:13:59.160Z,22.70
2018-07-20T04:16:31.041Z,22.60
2018-07-20T04:19:02.700Z,22.70
2018-07-20T04:21:34.420Z,22.70
2018-07-20T04:24:06.240Z,22.70
2018-07-20T04:26:39.061Z,22.70
2018-07-20T04:29:10.740Z,22.60
2018-07-20T04:31:42.840Z,22.70
2018-07-20T04:36:45.920Z,22.80
2018-07-20T04:39:17.600Z,22.70
2018-07-20T04:41:49.560Z,22.70
2018-07-20T04:44:21.460Z,22.60
2018-07-20T04:46:53.701Z,22.60
2018-07-20T04:49:25.781Z,22.70
2018-07-20T04:51:57.920Z,22.80
2018-07-20T04:54:29.860Z,22.70
2018-07-20T04:57:01.801Z,22.70
2018-07-20T04:59:34.260Z,22.70
2018-07-20T05:02:05.624Z,22.70
2018-07-20T05:04:37.880Z,22.80
2018-07-20T05:07:10.483Z,22.80
2018-07-20T05:09:42.880Z,22.80
2018-07-20T05:12:14.900Z,22.90
2018-07-20T05:14:46.520Z,23.00
2018-07-20T05:17:19.080Z,23.00
2018-07-20T05:19:50.880Z,23.00
2018-07-20T05:22:22.340Z,23.10
2018-07-20T05:24:53.700Z,23.20
2018-07-20T05:27:25.500Z,23.30
2018-07-20T05:29:57.601Z,23.30
2018-07-20T05:32:30.147Z,23.30
2018-07-20T05:35:01.361Z,23.30
2018-07-20T05:37:33.181Z,23.30
2018-07-20T05:40:04.680Z,23.30
2018-07-20T05:42:36.764Z,23.30
2018-07-20T05:45:09.280Z,23.20
2018-07-20T05:47:41.687Z,23.30
2018-07-20T05:50:13.141Z,23.30
2018-07-20T05:52:44.961Z,23.40
2018-07-20T05:55:17.221Z,23.50
2018-07-20T05:57:49.461Z,23.60
2018-07-20T06:00:20.880Z,23.70
2018-07-20T06:02:53.603Z,23.80
2018-07-20T06:05:25.050Z,23.90
2018-07-20T06:07:57.200Z,24.00
2018-07-20T06:10:28.321Z,24.20
2018-07-20T06:12:59.880Z,24.30
2018-07-20T06:15:32.520Z,24.40
2018-07-20T06:18:04.460Z,24.40
2018-07-20T06:20:36.701Z,24.50
2018-07-20T06:23:09.080Z,24.40
2018-07-20T06:25:40.620Z,24.50
2018-07-20T06:28:12.961Z,24.50
2018-07-20T06:30:44.321Z,24.60
2018-07-20T06:33:16.841Z,24.80
2018-07-20T06:35:48.640Z,24.90
2018-07-20T06:38:20.320Z,25.00
2018-07-20T06:40:52.442Z,25.10
2018-07-20T06:43:24.600Z,25.20
2018-07-20T06:45:56.020Z,25.40
2018-07-20T06:48:28.280Z,25.60
2018-07-20T06:51:02.001Z,25.70
2018-07-20T06:53:33.381Z,25.80
2018-07-20T06:56:05.360Z,25.80
2018-07-20T06:58:36.701Z,26.00
2018-07-20T07:01:09.920Z,26.20
2018-07-20T07:03:41.462Z,26.30
2018-07-20T07:06:13.440Z,26.30
2018-07-20T07:08:46.780Z,26.30
2018-07-20T07:11:18.380Z,26.50
2018-07-20T07:13:50.900Z,26.60
2018-07-20T07:16:22.320Z,26.50
2018-07-20T07:18:54.119Z,26.40
2018-07-20T07:21:25.660Z,26.40
2018-07-20T07:23:57.269Z,26.30
2018-07-20T07:26:30.280Z,26.30
2018-07-20T07:29:02.798Z,26.50
2018-07-20T07:31:35.321Z,26.60
2018-07-20T07:34:08.180Z,26.60
2018-07-20T07:36:39.680Z,26.60
2018-07-20T07:39:13.480Z,26.60
2018-07-20T07:41:45.503Z,26.60
2018-07-20T07:44:17.440Z,26.60
2018-07-20T07:46:49.560Z,26.60
2018-07-20T07:49:21.211Z,26.80
2018-07-20T07:51:53.721Z,26.80
2018-07-20T07:54:24.996Z,26.80
2018-07-20T07:56:57.060Z,26.90
2018-07-20T07:59:28.800Z,26.90
2018-07-20T08:02:01.420Z,26.70
2018-07-20T08:04:33.138Z,26.80
2018-07-20T08:07:05.520Z,26.80
2018-07-20T08:09:37.728Z,26.80
2018-07-20T08:12:08.922Z,26.80
2018-07-20T08:14:40.124Z,26.90
2018-07-20T08:17:12.783Z,26.30
2018-07-20T08:19:44.767Z,26.70
2018-07-20T08:22:17.123Z,26.60
2018-07-20T08:24:49.763Z,26.60
2018-07-20T08:27:21.424Z,26.60
2018-07-20T08:29:52.963Z,26.70
2018-07-20T08:32:24.783Z,26.60
2018-07-20T08:34:57.004Z,26.40
2018-07-20T08:37:29.103Z,26.20
2018-07-20T08:40:00.730Z,26.40
2018-07-20T08:42:32.783Z,26.40
2018-07-20T08:45:04.765Z,26.30
2018-07-20T08:47:36.464Z,26.30
2018-07-20T08:50:08.204Z,26.40
2018-07-20T08:55:10.323Z,26.70
2018-07-20T08:57:42.566Z,26.80
2018-07-20T09:00:14.564Z,26.90
2018-07-20T09:02:46.863Z,26.90
2018-07-20T09:05:18.964Z,26.90
2018-07-20T09:07:51.588Z,26.90
2018-07-20T09:10:23.592Z,26.90
2018-07-20T09:12:55.558Z,27.10
2018-07-20T09:15:27.720Z,27.30
2018-07-20T09:17:59.822Z,27.30
2018-07-20T09:20:32.174Z,27.50
2018-07-20T09:23:04.538Z,27.40
2018-07-20T09:25:36.836Z,27.40
2018-07-20T09:28:09.387Z,27.50
2018-07-20T09:30:40.953Z,27.40
2018-07-20T09:33:11.929Z,27.40
2018-07-20T09:35:44.109Z,27.50
2018-07-20T09:38:15.230Z,27.60
2018-07-20T09:40:47.389Z,27.80
2018-07-20T09:43:19.309Z,27.90
2018-07-20T09:45:50.970Z,27.90
2018-07-20T09:48:22.786Z,27.90
2018-07-20T09:50:55.106Z,27.90
2018-07-20T09:53:26.747Z,28.00
2018-07-20T09:55:58.466Z,28.10
2018-07-20T09:58:30.820Z,28.20
2018-07-20T10:01:03.106Z,28.40
2018-07-20T10:03:34.786Z,28.40
2018-07-20T10:06:07.086Z,28.30
2018-07-20T10:08:38.926Z,28.30
2018-07-20T10:11:11.334Z,28.40
2018-07-20T10:13:43.402Z,28.60
2018-07-20T10:16:15.847Z,28.70
2018-07-20T10:18:47.966Z,28.70
2018-07-20T10:21:20.306Z,28.60
2018-07-20T10:23:52.466Z,28.70
2018-07-20T10:26:24.226Z,28.80
2018-07-20T10:28:55.426Z,28.90
2018-07-20T10:31:27.528Z,28.90
2018-07-20T10:34:00.467Z,28.90
2018-07-20T10:36:32.154Z,29.10
2018-07-20T10:39:04.794Z,29.20
2018-07-20T10:41:37.707Z,29.40
2018-07-20T10:46:40.547Z,29.40
2018-07-20T10:49:13.086Z,29.40
2018-07-20T10:51:44.866Z,29.50
2018-07-20T10:54:16.567Z,29.50
2018-07-20T10:56:48.546Z,29.60
2018-07-20T10:59:20.666Z,29.90
2018-07-20T11:01:52.506Z,30.10
2018-07-20T11:04:25.186Z,30.20
2018-07-20T11:06:56.987Z,30.40
2018-07-20T11:09:29.667Z,30.60
2018-07-20T11:14:33.386Z,30.80
2018-07-20T11:17:04.926Z,30.90
2018-07-20T11:19:36.965Z,30.80
2018-07-20T11:22:08.806Z,30.90
2018-07-20T11:24:39.987Z,31.00
2018-07-20T11:27:11.665Z,31.20
2018-07-20T11:29:44.147Z,31.40
2018-07-20T11:32:16.806Z,31.60
2018-07-20T11:34:48.757Z,31.60
2018-07-20T11:37:20.825Z,31.70
2018-07-20T11:39:52.446Z,31.90
2018-07-20T11:42:24.287Z,31.90
2018-07-20T11:44:56.066Z,32.00
2018-07-20T11:47:27.307Z,32.10
2018-07-20T11:49:59.346Z,32.10
2018-07-20T11:52:30.826Z,32.30
2018-07-20T11:55:02.570Z,32.30
2018-07-20T11:57:33.909Z,32.30
2018-07-20T12:00:05.908Z,32.40
2018-07-20T12:02:37.970Z,32.60
2018-07-20T12:05:10.029Z,32.80
2018-07-20T12:07:41.908Z,32.80
2018-07-20T12:10:14.868Z,32.80
2018-07-20T12:12:46.488Z,32.90
2018-07-20T12:15:18.549Z,33.00
2018-07-20T12:17:51.287Z,33.10
2018-07-20T12:20:23.169Z,33.20
2018-07-20T12:22:55.448Z,33.30
2018-07-20T12:27:59.428Z,33.30
2018-07-20T12:30:32.129Z,33.40
2018-07-20T12:33:04.167Z,33.50
2018-07-20T12:35:37.127Z,33.60
2018-07-20T12:38:09.448Z,33.50
2018-07-20T12:40:41.049Z,33.10
2018-07-20T12:43:13.093Z,33.00
2018-07-20T12:45:44.986Z,33.30
2018-07-20T12:48:17.485Z,33.30
2018-07-20T12:50:49.685Z,33.40
2018-07-20T12:53:21.738Z,33.50
2018-07-20T12:55:53.943Z,33.50
2018-07-20T12:58:25.794Z,33.40
2018-07-20T13:00:57.682Z,33.60
2018-07-20T13:03:29.403Z,33.70
2018-07-20T13:06:01.043Z,33.90
2018-07-20T13:08:33.081Z,33.90
2018-07-20T13:11:04.684Z,33.70
2018-07-20T13:16:07.842Z,33.50
2018-07-20T13:18:39.922Z,33.50
2018-07-20T13:21:11.562Z,33.60
2018-07-20T13:23:43.730Z,33.70
2018-07-20T13:26:15.103Z,33.80
2018-07-20T13:28:47.722Z,33.80
2018-07-20T13:31:19.643Z,33.80
2018-07-20T13:33:51.783Z,33.60
2018-07-20T13:36:24.022Z,33.60
2018-07-20T13:38:55.622Z,33.60
2018-07-20T13:41:27.882Z,33.50
2018-07-20T13:44:00.103Z,33.40
2018-07-20T13:46:32.043Z,33.40
2018-07-20T13:49:04.523Z,33.40
2018-07-20T13:51:36.201Z,33.50
2018-07-20T13:54:08.761Z,33.50
2018-07-20T13:56:40.061Z,33.40
2018-07-20T13:59:11.841Z,33.30
2018-07-20T14:01:43.664Z,33.30
2018-07-20T14:04:15.645Z,33.40
2018-07-20T14:06:47.423Z,33.30
2018-07-20T14:09:19.842Z,33.40
2018-07-20T14:11:52.025Z,33.40
2018-07-20T14:14:23.802Z,33.50
2018-07-20T14:16:56.663Z,33.40
2018-07-20T14:19:27.902Z,33.40
2018-07-20T14:22:00.027Z,33.40
2018-07-20T14:24:31.751Z,33.40
2018-07-20T14:27:03.042Z,33.30
2018-07-20T14:29:34.941Z,33.30
2018-07-20T14:32:07.522Z,33.30
2018-07-20T14:34:40.003Z,33.40
2018-07-20T14:37:11.662Z,33.40
2018-07-20T14:39:43.423Z,33.40
2018-07-20T14:42:15.362Z,33.40
2018-07-20T14:44:47.702Z,33.30
2018-07-20T14:47:19.622Z,33.10
2018-07-20T14:49:51.884Z,33.00
2018-07-20T14:52:23.196Z,33.00
2018-07-20T14:54:55.094Z,33.00
2018-07-20T14:57:26.803Z,32.90
2018-07-20T14:59:58.871Z,32.90
2018-07-20T15:02:30.189Z,32.80
2018-07-20T15:05:02.883Z,32.70
2018-07-20T15:07:35.764Z,32.70
2018-07-20T15:10:07.444Z,32.60
2018-07-20T15:12:39.503Z,32.50
2018-07-20T15:15:11.384Z,32.50
2018-07-20T15:17:43.503Z,32.40
2018-07-20T15:20:16.664Z,32.30
2018-07-20T15:22:48.146Z,32.30
2018-07-20T15:25:20.984Z,32.20
2018-07-20T15:39:34.811Z,32.10
2018-07-20T15:42:07.704Z,32.20
2018-07-20T15:44:40.182Z,32.10
2018-07-20T15:47:11.414Z,32.10
2018-07-20T15:49:43.783Z,32.00
2018-07-20T15:54:47.421Z,31.90
2018-07-20T15:57:19.821Z,31.80
2018-07-20T15:59:52.076Z,31.80
2018-07-20T16:02:24.941Z,31.80
2018-07-20T16:04:56.802Z,31.60
2018-07-20T16:07:29.122Z,31.50
2018-07-20T16:10:00.721Z,31.40
2018-07-20T16:12:32.841Z,31.40
2018-07-20T16:15:05.142Z,31.30
2018-07-20T16:17:36.982Z,31.20
2018-07-20T16:20:08.681Z,31.20
2018-07-20T16:22:40.410Z,31.00
2018-07-20T16:25:12.302Z,31.00
2018-07-20T16:27:44.102Z,31.00
2018-07-20T16:30:15.722Z,30.80
2018-07-20T16:32:47.462Z,30.70
2018-07-20T16:35:19.642Z,30.70
2018-07-20T16:37:52.022Z,30.70
2018-07-20T16:40:23.302Z,30.70
2018-07-20T16:42:56.242Z,30.70
2018-07-20T16:45:28.462Z,30.70
2018-07-20T16:48:00.563Z,30.50
2018-07-20T16:50:32.902Z,30.30
2018-07-20T16:53:05.303Z,30.10
2018-07-20T16:55:36.901Z,30.10
2018-07-20T16:58:08.940Z,30.00
2018-07-20T17:00:41.122Z,30.00
2018-07-20T17:03:13.302Z,29.90
2018-07-20T17:05:44.682Z,29.80
2018-07-20T17:08:16.742Z,29.70
2018-07-20T17:10:48.582Z,29.50
2018-07-20T17:13:20.942Z,29.40
2018-07-20T17:15:51.902Z,29.20
2018-07-20T17:18:23.762Z,29.00
2018-07-20T17:20:55.183Z,28.70
2018-07-20T17:23:27.383Z,28.50
2018-07-20T17:25:59.082Z,28.40
2018-07-20T17:28:31.864Z,28.20
2018-07-20T17:31:03.843Z,28.10
2018-07-20T17:33:35.809Z,27.90
2018-07-20T17:36:07.843Z,27.70
2018-07-20T17:38:39.642Z,27.60
2018-07-20T17:41:11.962Z,27.50
2018-07-20T17:43:43.623Z,27.50
2018-07-20T17:46:16.222Z,27.50
2018-07-20T17:48:47.483Z,27.50
2018-07-20T17:51:19.863Z,27.50
2018-07-20T17:53:51.862Z,27.50
2018-07-20T17:56:24.043Z,27.50
2018-07-20T17:58:55.802Z,27.50
2018-07-20T18:01:28.223Z,27.40
2018-07-20T18:03:59.842Z,27.40
2018-07-20T18:06:31.847Z,27.50
2018-07-20T18:09:03.751Z,27.50
2018-07-20T18:11:35.342Z,27.40
2018-07-20T18:14:07.202Z,27.30
2018-07-20T18:16:38.823Z,27.10
2018-07-20T18:19:10.885Z,26.90
2018-07-20T18:21:43.203Z,26.80
2018-07-20T18:24:15.582Z,26.60
2018-07-20T18:26:47.062Z,26.50
2018-07-20T18:29:18.724Z,26.40
2018-07-20T18:31:50.422Z,26.20
2018-07-20T18:34:22.142Z,26.10
2018-07-20T18:36:54.241Z,26.00
2018-07-20T18:39:27.043Z,26.00
2018-07-20T18:41:58.593Z,26.00
2018-07-20T18:44:31.022Z,26.00
2018-07-20T18:47:02.983Z,26.00
2018-07-20T18:49:35.902Z,26.00
2018-07-20T18:52:07.622Z,26.10
2018-07-20T18:54:39.304Z,26.10
2018-07-20T18:57:11.541Z,26.10
2018-07-20T18:59:43.535Z,26.10
2018-07-20T19:02:15.482Z,25.90
2018-07-20T19:04:47.461Z,25.80
2018-07-20T19:07:19.101Z,25.90
2018-07-20T19:09:50.563Z,25.90
2018-07-20T19:12:22.522Z,25.80
2018-07-20T19:14:54.562Z,25.80
2018-07-20T19:17:26.163Z,25.70
2018-07-20T19:19:57.921Z,25.70
2018-07-20T19:22:29.542Z,25.60
2018-07-20T19:25:01.021Z,25.70
2018-07-20T19:27:33.202Z,25.60
2018-07-20T19:30:05.122Z,25.50
2018-07-20T19:32:36.896Z,25.40
2018-07-20T19:35:08.661Z,25.20
2018-07-20T19:37:40.701Z,25.20
2018-07-20T19:40:12.502Z,25.10
2018-07-20T19:42:44.601Z,25.00
2018-07-20T19:45:16.481Z,24.90
2018-07-20T19:47:48.968Z,24.90
2018-07-20T19:50:20.442Z,24.80
2018-07-20T19:52:52.422Z,24.70
2018-07-20T19:55:24.201Z,24.60
2018-07-20T19:57:56.402Z,24.70
2018-07-20T20:00:28.961Z,24.60
2018-07-20T20:03:00.962Z,24.40
2018-07-20T20:05:33.602Z,24.30
2018-07-20T20:08:05.689Z,24.30
2018-07-20T20:10:37.142Z,24.30
2018-07-20T20:13:10.063Z,24.30
2018-07-20T20:15:41.161Z,24.30
2018-07-20T20:18:13.222Z,24.20
2018-07-20T20:20:44.962Z,24.10
2018-07-20T20:23:17.102Z,24.00
2018-07-20T20:25:48.950Z,24.00
2018-07-20T20:28:21.042Z,23.90
2018-07-20T20:30:54.062Z,23.80
2018-07-20T20:33:25.662Z,23.70
2018-07-20T20:35:57.190Z,23.80
2018-07-20T20:38:29.302Z,23.90
2018-07-20T20:41:01.062Z,24.10
2018-07-20T20:43:32.822Z,24.10
2018-07-20T20:46:05.724Z,24.20
2018-07-20T20:48:37.722Z,24.40
2018-07-20T20:51:09.662Z,24.50
2018-07-20T20:53:43.271Z,24.50
2018-07-20T20:56:14.962Z,24.50
2018-07-20T20:58:47.249Z,24.50
2018-07-20T21:01:19.582Z,24.50
2018-07-20T21:03:51.582Z,24.30
2018-07-20T21:06:23.742Z,24.20
2018-07-20T21:08:55.562Z,24.20
2018-07-20T21:11:27.205Z,24.20
2018-07-20T21:13:58.763Z,24.10
2018-07-20T21:16:31.322Z,24.10
2018-07-20T21:19:03.042Z,24.00
2018-07-20T21:21:34.662Z,24.00
2018-07-20T21:24:07.365Z,24.10
2018-07-20T21:26:40.161Z,24.10
2018-07-20T21:29:12.163Z,24.10
2018-07-20T21:31:43.522Z,24.10
2018-07-20T21:34:15.541Z,24.00
2018-07-20T21:36:47.502Z,24.00
2018-07-20T21:39:19.781Z,24.00
2018-07-20T21:41:51.983Z,24.00
2018-07-20T21:44:23.622Z,23.90
2018-07-20T21:46:55.783Z,23.90
2018-07-20T21:51:59.383Z,23.90
2018-07-20T21:54:30.883Z,24.00
2018-07-20T21:57:02.744Z,24.00
2018-07-20T21:59:34.662Z,24.00
2018-07-20T22:02:06.582Z,23.90
2018-07-20T22:04:38.243Z,23.80
2018-07-20T22:07:10.162Z,23.80
2018-07-20T22:09:41.742Z,23.80
2018-07-20T22:12:14.242Z,23.80
2018-07-20T22:14:46.602Z,23.90
2018-07-20T22:17:18.683Z,23.90
2018-07-20T22:19:50.822Z,23.90
2018-07-20T22:22:22.623Z,23.90
2018-07-20T22:24:54.242Z,24.00
2018-07-20T22:27:25.922Z,24.00
2018-07-20T22:29:58.943Z,24.00
2018-07-20T22:32:31.665Z,24.10
2018-07-20T22:35:03.322Z,24.20
2018-07-20T22:37:34.762Z,24.10
2018-07-20T22:40:07.042Z,24.10
2018-07-20T22:42:39.162Z,24.20
2018-07-20T22:45:10.902Z,24.20
2018-07-20T22:47:42.204Z,24.10
2018-07-20T22:50:13.902Z,24.10
2018-07-20T22:52:46.386Z,24.10
2018-07-20T22:55:18.103Z,24.00
2018-07-20T22:57:49.842Z,24.00
2018-07-20T23:00:21.262Z,24.00
2018-07-20T23:02:53.371Z,24.10
2018-07-20T23:05:25.062Z,24.10
2018-07-20T23:07:57.242Z,24.10
2018-07-20T23:10:29.322Z,24.10
2018-07-20T23:13:01.362Z,24.10
2018-07-20T23:15:33.102Z,24.00
2018-07-20T23:18:15.322Z,24.00
2018-07-20T23:20:47.151Z,23.90
2018-07-20T23:23:19.242Z,23.90
2018-07-20T23:25:50.841Z,23.90
2018-07-20T23:28:23.562Z,23.80
2018-07-20T23:30:55.042Z,23.80
2018-07-20T23:33:26.944Z,23.70
2018-07-20T23:35:58.462Z,23.70
2018-07-20T23:38:30.421Z,23.70
2018-07-20T23:41:01.702Z,23.60
2018-07-20T23:43:33.481Z,23.60
2018-07-20T23:46:05.061Z,23.50
2018-07-20T23:48:37.222Z,23.50
2018-07-20T23:51:08.642Z,23.30
2018-07-20T23:53:40.641Z,23.30
2018-07-20T23:56:11.841Z,23.20
2018-07-20T23:58:44.422Z,23.30
